Gallina — 9VGC4 — position and weather

sailwx.info

Track history (hours):
 
Tides and Currents Weather Stations Pressure Air Temp Water Temp Dewpoint Dewpoint Depression Visibility Wind Speed Wind Dir Waves Ship Positions

Gallina

Last reported at 2015-Feb-20 13:31 UTC. Time now 2015-Mar-01 04:28 UTC.
Position S 13°16' W 038°29'.
Warning: this ship's position is 8 days out of date.

Type: Ship (hazmat cat A). MMSI: 564646000.

Date/timePositionNaut miles runAvg speedWind from/ knotsBaromVisibWave heightAir tempDewpointWater temp
2015-Feb-20 13:31S 13°16' W 038°29'1010.6
2015-Feb-20 12:33S 13°08' W 038°35'1010.3
2015-Feb-20 11:33S 12°58' W 038°34'10 9.9
2015-Feb-20 10:33S 12°50' W 038°40'2 1.5
2015-Feb-20 09:31S 12°49' W 038°41'0 0.0
2015-Feb-18 14:32S 12°49' W 038°41'0 0.0
2015-Feb-18 13:32S 12°49' W 038°41'0 0.4
2015-Feb-18 12:33S 12°49' W 038°41'6 6.4
2015-Feb-18 11:33S 12°54' W 038°36'7 6.7
2015-Feb-18 10:33S 12°60' W 038°33'7 7.2
2015-Feb-18 09:33S 13°07' W 038°34'8 8.1
2015-Feb-18 08:32S 13°15' W 038°31'  
Track history (hours):
 
Tides and Currents Weather Stations Pressure Air Temp Water Temp Dewpoint Dewpoint Depression Visibility Wind Speed Wind Dir Waves Ship Positions

Gallina

Last reported at 2015-Feb-20 13:31 UTC. Time now 2015-Mar-01 04:28 UTC.
Position S 13°16' W 038°29'.
Warning: this ship's position is 8 days out of date.

Type: Ship (hazmat cat A). MMSI: 564646000.

Date/timePositionNaut miles runAvg speedWind from/ knotsBaromVisibWave heightAir tempDewpointWater temp
2015-Feb-20 13:31S 13°16' W 038°29'1010.6
2015-Feb-20 12:33S 13°08' W 038°35'1010.3
2015-Feb-20 11:33S 12°58' W 038°34'10 9.9
2015-Feb-20 10:33S 12°50' W 038°40'2 1.5
2015-Feb-20 09:31S 12°49' W 038°41'0 0.0
2015-Feb-18 14:32S 12°49' W 038°41'0 0.0
2015-Feb-18 13:32S 12°49' W 038°41'0 0.4
2015-Feb-18 12:33S 12°49' W 038°41'6 6.4
2015-Feb-18 11:33S 12°54' W 038°36'7 6.7
2015-Feb-18 10:33S 12°60' W 038°33'7 7.2
2015-Feb-18 09:33S 13°07' W 038°34'8 8.1
2015-Feb-18 08:32S 13°15' W 038°31'  

Dump ship's entire track history